sensor_id;sensor_type;location;lat;lon;timestamp;P1;durP1;ratioP1;P2;durP2;ratioP2
54875;SDS011;40764;48.472;8.166;2022-08-05T00:02:49;9.75;;;3.50;;
54875;SDS011;40764;48.472;8.166;2022-08-05T00:36:03;4.53;;;3.53;;
54875;SDS011;40764;48.472;8.166;2022-08-05T00:42:07;6.25;;;4.10;;
54875;SDS011;40764;48.472;8.166;2022-08-05T00:48:11;5.07;;;3.50;;
54875;SDS011;40764;48.472;8.166;2022-08-05T00:54:19;8.15;;;3.60;;
54875;SDS011;40764;48.472;8.166;2022-08-05T01:00:20;6.05;;;3.25;;
54875;SDS011;40764;48.472;8.166;2022-08-05T01:06:20;6.40;;;3.90;;
54875;SDS011;40764;48.472;8.166;2022-08-05T01:12:21;6.20;;;3.57;;
54875;SDS011;40764;48.472;8.166;2022-08-05T01:18:28;6.22;;;3.90;;
54875;SDS011;40764;48.472;8.166;2022-08-05T01:43:23;7.13;;;3.63;;
54875;SDS011;40764;48.472;8.166;2022-08-05T01:49:44;4.60;;;3.07;;
54875;SDS011;40764;48.472;8.166;2022-08-05T01:55:57;6.28;;;3.63;;
54875;SDS011;40764;48.472;8.166;2022-08-05T02:02:05;7.88;;;3.75;;
54875;SDS011;40764;48.472;8.166;2022-08-05T02:08:07;6.35;;;3.95;;
54875;SDS011;40764;48.472;8.166;2022-08-05T02:14:10;6.00;;;4.10;;
54875;SDS011;40764;48.472;8.166;2022-08-05T02:20:16;8.13;;;3.90;;
54875;SDS011;40764;48.472;8.166;2022-08-05T02:26:22;6.03;;;4.32;;
54875;SDS011;40764;48.472;8.166;2022-08-05T02:32:29;10.32;;;4.40;;
54875;SDS011;40764;48.472;8.166;2022-08-05T02:38:31;6.03;;;4.35;;
54875;SDS011;40764;48.472;8.166;2022-08-05T02:44:34;4.60;;;3.83;;
54875;SDS011;40764;48.472;8.166;2022-08-05T02:50:37;9.75;;;3.90;;
54875;SDS011;40764;48.472;8.166;2022-08-05T02:56:41;4.70;;;3.80;;
54875;SDS011;40764;48.472;8.166;2022-08-05T03:02:46;5.88;;;3.78;;
54875;SDS011;40764;48.472;8.166;2022-08-05T03:08:51;11.15;;;4.20;;
54875;SDS011;40764;48.472;8.166;2022-08-05T03:14:52;8.60;;;3.30;;
54875;SDS011;40764;48.472;8.166;2022-08-05T03:21:01;10.60;;;3.45;;
54875;SDS011;40764;48.472;8.166;2022-08-05T03:27:23;6.43;;;3.88;;
54875;SDS011;40764;48.472;8.166;2022-08-05T03:33:37;7.32;;;4.30;;
54875;SDS011;40764;48.472;8.166;2022-08-05T03:39:59;5.57;;;3.90;;
54875;SDS011;40764;48.472;8.166;2022-08-05T03:59:58;4.82;;;3.60;;
54875;SDS011;40764;48.472;8.166;2022-08-05T04:13:02;6.75;;;3.75;;
54875;SDS011;40764;48.472;8.166;2022-08-05T04:25:37;10.50;;;5.20;;
54875;SDS011;40764;48.472;8.166;2022-08-05T04:31:37;5.47;;;4.20;;
54875;SDS011;40764;48.472;8.166;2022-08-05T04:37:38;6.20;;;4.83;;
54875;SDS011;40764;48.472;8.166;2022-08-05T04:43:41;9.52;;;4.85;;
54875;SDS011;40764;48.472;8.166;2022-08-05T04:49:41;12.13;;;4.03;;
54875;SDS011;40764;48.472;8.166;2022-08-05T04:55:42;9.07;;;2.80;;
54875;SDS011;40764;48.472;8.166;2022-08-05T05:01:43;8.27;;;3.00;;
54875;SDS011;40764;48.472;8.166;2022-08-05T05:07:43;10.95;;;3.40;;
54875;SDS011;40764;48.472;8.166;2022-08-05T05:13:44;17.83;;;3.10;;
54875;SDS011;40764;48.472;8.166;2022-08-05T05:19:44;4.60;;;2.83;;
54875;SDS011;40764;48.472;8.166;2022-08-05T05:25:44;7.67;;;2.60;;
54875;SDS011;40764;48.472;8.166;2022-08-05T05:31:45;10.33;;;3.27;;
54875;SDS011;40764;48.472;8.166;2022-08-05T05:37:49;8.37;;;3.37;;
54875;SDS011;40764;48.472;8.166;2022-08-05T05:43:50;8.45;;;2.88;;
54875;SDS011;40764;48.472;8.166;2022-08-05T05:49:50;8.20;;;3.45;;
54875;SDS011;40764;48.472;8.166;2022-08-05T05:55:51;14.13;;;3.27;;
54875;SDS011;40764;48.472;8.166;2022-08-05T06:01:51;8.63;;;3.30;;
54875;SDS011;40764;48.472;8.166;2022-08-05T06:07:52;7.93;;;2.73;;
54875;SDS011;40764;48.472;8.166;2022-08-05T06:13:52;6.90;;;3.07;;
54875;SDS011;40764;48.472;8.166;2022-08-05T06:19:53;12.50;;;2.83;;
54875;SDS011;40764;48.472;8.166;2022-08-05T06:31:54;7.68;;;3.33;;
54875;SDS011;40764;48.472;8.166;2022-08-05T06:37:55;6.40;;;3.20;;
54875;SDS011;40764;48.472;8.166;2022-08-05T06:43:58;7.00;;;2.95;;
54875;SDS011;40764;48.472;8.166;2022-08-05T06:49:58;6.00;;;2.87;;
54875;SDS011;40764;48.472;8.166;2022-08-05T06:55:59;5.45;;;2.25;;
54875;SDS011;40764;48.472;8.166;2022-08-05T07:01:59;4.20;;;2.38;;
54875;SDS011;40764;48.472;8.166;2022-08-05T07:08:00;2.93;;;2.20;;
54875;SDS011;40764;48.472;8.166;2022-08-05T07:14:00;8.80;;;2.33;;
54875;SDS011;40764;48.472;8.166;2022-08-05T07:20:19;3.78;;;2.42;;
54875;SDS011;40764;48.472;8.166;2022-08-05T07:26:20;6.47;;;2.30;;
54875;SDS011;40764;48.472;8.166;2022-08-05T07:32:20;3.67;;;2.20;;
54875;SDS011;40764;48.472;8.166;2022-08-05T07:38:20;5.83;;;2.63;;
54875;SDS011;40764;48.472;8.166;2022-08-05T07:44:21;9.00;;;2.40;;
54875;SDS011;40764;48.472;8.166;2022-08-05T07:50:21;4.78;;;2.30;;
54875;SDS011;40764;48.472;8.166;2022-08-05T07:56:21;6.32;;;3.22;;
54875;SDS011;40764;48.472;8.166;2022-08-05T08:02:22;5.23;;;2.27;;
54875;SDS011;40764;48.472;8.166;2022-08-05T08:08:27;3.20;;;2.65;;
54875;SDS011;40764;48.472;8.166;2022-08-05T08:14:27;5.17;;;2.43;;
54875;SDS011;40764;48.472;8.166;2022-08-05T08:20:27;3.97;;;2.10;;
54875;SDS011;40764;48.472;8.166;2022-08-05T08:26:28;3.63;;;2.00;;
54875;SDS011;40764;48.472;8.166;2022-08-05T08:32:28;4.43;;;2.40;;
54875;SDS011;40764;48.472;8.166;2022-08-05T08:38:29;3.33;;;2.35;;
54875;SDS011;40764;48.472;8.166;2022-08-05T08:44:30;3.97;;;2.50;;
54875;SDS011;40764;48.472;8.166;2022-08-05T08:50:32;4.55;;;2.03;;
54875;SDS011;40764;48.472;8.166;2022-08-05T08:56:33;2.55;;;1.65;;
54875;SDS011;40764;48.472;8.166;2022-08-05T09:02:33;2.35;;;2.03;;
54875;SDS011;40764;48.472;8.166;2022-08-05T09:08:34;2.53;;;1.67;;
54875;SDS011;40764;48.472;8.166;2022-08-05T09:14:34;2.90;;;2.43;;
54875;SDS011;40764;48.472;8.166;2022-08-05T09:20:36;2.53;;;1.75;;
54875;SDS011;40764;48.472;8.166;2022-08-05T09:26:38;2.00;;;1.80;;
54875;SDS011;40764;48.472;8.166;2022-08-05T09:32:38;2.60;;;1.80;;
54875;SDS011;40764;48.472;8.166;2022-08-05T09:38:39;4.55;;;2.28;;
54875;SDS011;40764;48.472;8.166;2022-08-05T09:44:55;2.45;;;1.70;;
54875;SDS011;40764;48.472;8.166;2022-08-05T09:51:05;2.13;;;1.65;;
54875;SDS011;40764;48.472;8.166;2022-08-05T09:57:11;2.25;;;1.90;;
54875;SDS011;40764;48.472;8.166;2022-08-05T10:03:28;4.22;;;2.40;;
54875;SDS011;40764;48.472;8.166;2022-08-05T10:15:30;3.85;;;1.95;;
54875;SDS011;40764;48.472;8.166;2022-08-05T10:21:32;4.25;;;2.20;;
54875;SDS011;40764;48.472;8.166;2022-08-05T10:33:33;6.13;;;2.30;;
54875;SDS011;40764;48.472;8.166;2022-08-05T10:39:34;3.33;;;2.20;;
54875;SDS011;40764;48.472;8.166;2022-08-05T10:45:39;2.45;;;1.92;;
54875;SDS011;40764;48.472;8.166;2022-08-05T10:57:47;3.25;;;2.00;;
54875;SDS011;40764;48.472;8.166;2022-08-05T11:10:15;5.28;;;2.08;;
54875;SDS011;40764;48.472;8.166;2022-08-05T11:16:21;5.32;;;2.30;;
54875;SDS011;40764;48.472;8.166;2022-08-05T11:22:39;6.03;;;2.47;;
54875;SDS011;40764;48.472;8.166;2022-08-05T11:28:52;4.28;;;2.08;;
54875;SDS011;40764;48.472;8.166;2022-08-05T11:34:54;5.35;;;2.35;;
54875;SDS011;40764;48.472;8.166;2022-08-05T11:47:04;4.68;;;2.35;;
54875;SDS011;40764;48.472;8.166;2022-08-05T11:53:05;2.85;;;2.15;;
54875;SDS011;40764;48.472;8.166;2022-08-05T11:59:05;4.13;;;2.23;;
54875;SDS011;40764;48.472;8.166;2022-08-05T12:05:06;4.27;;;2.30;;
54875;SDS011;40764;48.472;8.166;2022-08-05T12:11:07;5.35;;;2.17;;
54875;SDS011;40764;48.472;8.166;2022-08-05T12:17:09;7.10;;;2.35;;
54875;SDS011;40764;48.472;8.166;2022-08-05T12:23:12;4.97;;;2.90;;
54875;SDS011;40764;48.472;8.166;2022-08-05T12:29:13;4.47;;;1.98;;
54875;SDS011;40764;48.472;8.166;2022-08-05T12:35:38;7.50;;;2.65;;
54875;SDS011;40764;48.472;8.166;2022-08-05T12:41:44;5.20;;;2.85;;
54875;SDS011;40764;48.472;8.166;2022-08-05T12:48:12;2.70;;;2.00;;
54875;SDS011;40764;48.472;8.166;2022-08-05T12:54:20;4.88;;;2.47;;
54875;SDS011;40764;48.472;8.166;2022-08-05T13:00:28;4.32;;;2.72;;
54875;SDS011;40764;48.472;8.166;2022-08-05T13:06:30;5.20;;;2.30;;
54875;SDS011;40764;48.472;8.166;2022-08-05T13:12:30;7.22;;;2.30;;
54875;SDS011;40764;48.472;8.166;2022-08-05T13:18:38;3.92;;;2.60;;
54875;SDS011;40764;48.472;8.166;2022-08-05T13:24:38;5.90;;;2.20;;
54875;SDS011;40764;48.472;8.166;2022-08-05T13:30:39;4.43;;;2.40;;
54875;SDS011;40764;48.472;8.166;2022-08-05T13:36:40;6.87;;;2.67;;
54875;SDS011;40764;48.472;8.166;2022-08-05T13:42:41;10.23;;;2.67;;
54875;SDS011;40764;48.472;8.166;2022-08-05T13:48:43;6.40;;;2.83;;
54875;SDS011;40764;48.472;8.166;2022-08-05T13:54:44;6.05;;;2.75;;
54875;SDS011;40764;48.472;8.166;2022-08-05T14:00:45;7.03;;;3.05;;
54875;SDS011;40764;48.472;8.166;2022-08-05T14:06:45;4.63;;;2.47;;
54875;SDS011;40764;48.472;8.166;2022-08-05T14:12:49;12.03;;;2.97;;
54875;SDS011;40764;48.472;8.166;2022-08-05T14:18:49;6.28;;;2.80;;
54875;SDS011;40764;48.472;8.166;2022-08-05T14:24:50;8.02;;;3.28;;
54875;SDS011;40764;48.472;8.166;2022-08-05T14:30:55;8.20;;;3.15;;
54875;SDS011;40764;48.472;8.166;2022-08-05T14:36:59;9.65;;;3.42;;
54875;SDS011;40764;48.472;8.166;2022-08-05T14:43:04;7.65;;;3.70;;
54875;SDS011;40764;48.472;8.166;2022-08-05T14:49:04;5.10;;;3.33;;
54875;SDS011;40764;48.472;8.166;2022-08-05T14:55:05;6.32;;;4.38;;
54875;SDS011;40764;48.472;8.166;2022-08-05T15:07:06;8.43;;;3.47;;
54875;SDS011;40764;48.472;8.166;2022-08-05T15:13:07;9.33;;;4.23;;
54875;SDS011;40764;48.472;8.166;2022-08-05T15:25:08;4.97;;;3.28;;
54875;SDS011;40764;48.472;8.166;2022-08-05T15:31:09;8.68;;;4.00;;
54875;SDS011;40764;48.472;8.166;2022-08-05T15:43:14;9.20;;;3.65;;
54875;SDS011;40764;48.472;8.166;2022-08-05T15:55:14;4.80;;;2.70;;
54875;SDS011;40764;48.472;8.166;2022-08-05T16:01:16;6.35;;;3.65;;
54875;SDS011;40764;48.472;8.166;2022-08-05T16:07:17;5.07;;;3.50;;
54875;SDS011;40764;48.472;8.166;2022-08-05T16:13:20;4.20;;;3.10;;
54875;SDS011;40764;48.472;8.166;2022-08-05T16:25:29;6.97;;;3.45;;
54875;SDS011;40764;48.472;8.166;2022-08-05T16:37:44;3.70;;;2.80;;
54875;SDS011;40764;48.472;8.166;2022-08-05T16:44:02;6.93;;;3.25;;
54875;SDS011;40764;48.472;8.166;2022-08-05T16:50:09;3.55;;;2.90;;
54875;SDS011;40764;48.472;8.166;2022-08-05T17:03:47;5.85;;;2.88;;
54875;SDS011;40764;48.472;8.166;2022-08-05T17:10:00;8.40;;;3.15;;
54875;SDS011;40764;48.472;8.166;2022-08-05T17:16:06;6.07;;;3.05;;
54875;SDS011;40764;48.472;8.166;2022-08-05T17:29:06;6.45;;;3.67;;
54875;SDS011;40764;48.472;8.166;2022-08-05T17:35:44;4.47;;;3.25;;
54875;SDS011;40764;48.472;8.166;2022-08-05T17:41:44;11.10;;;3.92;;
54875;SDS011;40764;48.472;8.166;2022-08-05T17:47:45;6.23;;;3.60;;
54875;SDS011;40764;48.472;8.166;2022-08-05T17:53:45;5.20;;;3.53;;
54875;SDS011;40764;48.472;8.166;2022-08-05T17:59:46;9.88;;;4.40;;
54875;SDS011;40764;48.472;8.166;2022-08-05T18:05:46;5.82;;;4.20;;
54875;SDS011;40764;48.472;8.166;2022-08-05T18:11:46;6.10;;;3.53;;
54875;SDS011;40764;48.472;8.166;2022-08-05T18:17:47;7.00;;;4.25;;
54875;SDS011;40764;48.472;8.166;2022-08-05T18:23:47;6.27;;;4.27;;
54875;SDS011;40764;48.472;8.166;2022-08-05T18:29:47;5.85;;;4.22;;
54875;SDS011;40764;48.472;8.166;2022-08-05T18:35:48;8.67;;;4.53;;
54875;SDS011;40764;48.472;8.166;2022-08-05T18:41:48;9.82;;;4.32;;
54875;SDS011;40764;48.472;8.166;2022-08-05T18:47:50;5.53;;;3.92;;
54875;SDS011;40764;48.472;8.166;2022-08-05T18:53:50;9.32;;;5.95;;
54875;SDS011;40764;48.472;8.166;2022-08-05T18:59:50;6.53;;;4.27;;
54875;SDS011;40764;48.472;8.166;2022-08-05T19:05:51;7.82;;;5.07;;
54875;SDS011;40764;48.472;8.166;2022-08-05T19:11:51;5.67;;;4.23;;
54875;SDS011;40764;48.472;8.166;2022-08-05T19:17:54;6.57;;;4.63;;
54875;SDS011;40764;48.472;8.166;2022-08-05T19:23:55;6.18;;;4.88;;
54875;SDS011;40764;48.472;8.166;2022-08-05T19:29:56;10.23;;;5.30;;
54875;SDS011;40764;48.472;8.166;2022-08-05T19:35:57;8.27;;;5.70;;
54875;SDS011;40764;48.472;8.166;2022-08-05T19:41:57;6.68;;;4.90;;
54875;SDS011;40764;48.472;8.166;2022-08-05T19:47:57;6.03;;;4.45;;
54875;SDS011;40764;48.472;8.166;2022-08-05T19:53:58;4.30;;;3.90;;
54875;SDS011;40764;48.472;8.166;2022-08-05T19:59:58;6.70;;;3.60;;
54875;SDS011;40764;48.472;8.166;2022-08-05T20:05:59;5.07;;;3.58;;
54875;SDS011;40764;48.472;8.166;2022-08-05T20:11:59;4.77;;;3.27;;
54875;SDS011;40764;48.472;8.166;2022-08-05T20:18:00;3.03;;;2.72;;
54875;SDS011;40764;48.472;8.166;2022-08-05T20:24:00;3.70;;;3.07;;
54875;SDS011;40764;48.472;8.166;2022-08-05T20:30:01;5.55;;;2.80;;
54875;SDS011;40764;48.472;8.166;2022-08-05T20:36:01;3.47;;;2.70;;
54875;SDS011;40764;48.472;8.166;2022-08-05T20:42:02;4.00;;;2.73;;
54875;SDS011;40764;48.472;8.166;2022-08-05T20:48:03;5.97;;;2.63;;
54875;SDS011;40764;48.472;8.166;2022-08-05T20:54:04;4.97;;;2.93;;
54875;SDS011;40764;48.472;8.166;2022-08-05T21:00:05;3.73;;;2.83;;
54875;SDS011;40764;48.472;8.166;2022-08-05T21:06:06;5.35;;;3.08;;
54875;SDS011;40764;48.472;8.166;2022-08-05T21:12:06;3.13;;;2.80;;
54875;SDS011;40764;48.472;8.166;2022-08-05T21:18:07;5.00;;;2.83;;
54875;SDS011;40764;48.472;8.166;2022-08-05T21:24:07;5.13;;;3.38;;
54875;SDS011;40764;48.472;8.166;2022-08-05T21:30:09;8.07;;;4.47;;
54875;SDS011;40764;48.472;8.166;2022-08-05T21:36:09;7.07;;;3.80;;
54875;SDS011;40764;48.472;8.166;2022-08-05T21:42:10;6.00;;;4.60;;
54875;SDS011;40764;48.472;8.166;2022-08-05T21:48:10;7.17;;;4.77;;
54875;SDS011;40764;48.472;8.166;2022-08-05T21:54:11;13.60;;;6.20;;
54875;SDS011;40764;48.472;8.166;2022-08-05T22:00:11;7.28;;;5.20;;
54875;SDS011;40764;48.472;8.166;2022-08-05T22:06:12;10.32;;;6.43;;
54875;SDS011;40764;48.472;8.166;2022-08-05T22:12:13;9.47;;;6.20;;
54875;SDS011;40764;48.472;8.166;2022-08-05T22:18:13;9.68;;;6.03;;
54875;SDS011;40764;48.472;8.166;2022-08-05T22:24:13;6.43;;;5.47;;
54875;SDS011;40764;48.472;8.166;2022-08-05T22:30:32;10.65;;;6.05;;
54875;SDS011;40764;48.472;8.166;2022-08-05T22:36:33;10.40;;;6.20;;
54875;SDS011;40764;48.472;8.166;2022-08-05T22:42:33;9.45;;;5.47;;
54875;SDS011;40764;48.472;8.166;2022-08-05T22:48:34;8.70;;;6.13;;
54875;SDS011;40764;48.472;8.166;2022-08-05T22:54:35;9.93;;;6.63;;
54875;SDS011;40764;48.472;8.166;2022-08-05T23:00:35;9.15;;;5.80;;
54875;SDS011;40764;48.472;8.166;2022-08-05T23:06:36;10.37;;;5.17;;
54875;SDS011;40764;48.472;8.166;2022-08-05T23:12:36;11.07;;;5.00;;
54875;SDS011;40764;48.472;8.166;2022-08-05T23:18:37;5.43;;;3.50;;
54875;SDS011;40764;48.472;8.166;2022-08-05T23:24:37;8.03;;;3.30;;
54875;SDS011;40764;48.472;8.166;2022-08-05T23:30:38;7.50;;;3.33;;
54875;SDS011;40764;48.472;8.166;2022-08-05T23:36:39;7.47;;;3.10;;
54875;SDS011;40764;48.472;8.166;2022-08-05T23:42:39;5.40;;;3.22;;
54875;SDS011;40764;48.472;8.166;2022-08-05T23:48:40;5.17;;;3.17;;
54875;SDS011;40764;48.472;8.166;2022-08-05T23:54:40;3.58;;;2.70;;
